Time;durP1;ratioP1;P1;durP2;ratioP2;P2;SDS_P1;SDS_P2;PMS_P1;PMS_P2;Temp;Humidity;BMP_temperature;BMP_pressure;BME280_temperature;BME280_humidity;BME280_pressure;Samples;Min_cycle;Max_cycle;Signal;HPM_P1;HPM_P2
2021/10/19 00:04:44;;;;;;;;;91.00;91.00;;;;;;;;2;261078020;261078020;-77
2021/10/19 00:14:11;;;;;;;;;96.00;95.00;;;;;;;;2;288085960;288085960;-77
2021/10/19 00:22:27;;;;;;;;;95.00;88.50;;;;;;;;2;261078303;261078303;-76
2021/10/19 00:31:54;;;;;;;;;79.50;74.00;;;;;;;;2;288083881;288083881;-77
2021/10/19 00:40:10;;;;;;;;;77.50;73.50;;;;;;;;2;261076982;261076982;-76
2021/10/19 00:49:37;;;;;;;;;98.00;98.00;;;;;;;;2;288083601;288083601;-76
2021/10/19 00:57:53;;;;;;;;;91.00;90.00;;;;;;;;2;261078638;261078638;-76
2021/10/19 01:07:21;;;;;;;;;87.50;87.00;;;;;;;;2;288083636;288083636;-76
2021/10/19 01:15:36;;;;;;;;;86.00;80.00;;;;;;;;2;261077590;261077590;-77
2021/10/19 01:25:04;;;;;;;;;107.50;106.50;;;;;;;;2;288085381;288085381;-76
2021/10/19 01:33:20;;;;;;;;;92.50;85.50;;;;;;;;2;261076397;261076397;-75
2021/10/19 01:42:47;;;;;;;;;91.00;90.50;;;;;;;;2;288084190;288084190;-75
2021/10/19 01:51:03;;;;;;;;;92.50;89.50;;;;;;;;2;261075767;261075767;-76
2021/10/19 02:00:30;;;;;;;;;113.00;113.00;;;;;;;;2;288086464;288086464;-75
2021/10/19 02:08:46;;;;;;;;;131.50;128.00;;;;;;;;2;261074934;261074934;-76
2021/10/19 02:18:13;;;;;;;;;113.00;113.00;;;;;;;;2;288086913;288086913;-76
2021/10/19 02:26:29;;;;;;;;;99.50;99.50;;;;;;;;2;261076548;261076548;-76
2021/10/19 02:35:56;;;;;;;;;93.50;93.00;;;;;;;;2;288083800;288083800;-76
2021/10/19 02:44:12;;;;;;;;;104.50;97.00;;;;;;;;2;261076930;261076930;-76
2021/10/19 02:53:39;;;;;;;;;89.00;88.50;;;;;;;;2;288086249;288086249;-76
2021/10/19 03:01:55;;;;;;;;;102.50;98.50;;;;;;;;2;261078296;261078296;-77
2021/10/19 03:11:23;;;;;;;;;87.50;87.50;;;;;;;;2;288083526;288083526;-76
2021/10/19 03:19:38;;;;;;;;;92.50;92.50;;;;;;;;2;261075806;261075806;-76
2021/10/19 03:29:06;;;;;;;;;96.50;96.50;;;;;;;;2;288083116;288083116;-76
2021/10/19 03:37:21;;;;;;;;;92.50;91.00;;;;;;;;2;261077603;261077603;-76
2021/10/19 03:46:49;;;;;;;;;93.50;92.50;;;;;;;;2;288084254;288084254;-76
2021/10/19 03:55:05;;;;;;;;;89.00;88.50;;;;;;;;2;261074223;261074223;-76
2021/10/19 04:04:35;;;;;;;;;98.50;98.50;;;;;;;;2;288082608;288082608;-76
2021/10/19 04:12:51;;;;;;;;;115.00;115.00;;;;;;;;2;261077081;261077081;-76
2021/10/19 04:22:22;;;;;;;;;107.00;107.00;;;;;;;;2;288084033;288084033;-76
2021/10/19 04:30:38;;;;;;;;;99.50;98.00;;;;;;;;2;261079730;261079730;-76
2021/10/19 04:40:06;;;;;;;;;99.50;99.50;;;;;;;;2;288081105;288081105;-76
2021/10/19 04:48:22;;;;;;;;;114.00;114.00;;;;;;;;2;261077129;261077129;-76
2021/10/19 04:57:49;;;;;;;;;89.00;86.00;;;;;;;;2;288082742;288082742;-76
2021/10/19 05:06:05;;;;;;;;;90.00;87.00;;;;;;;;2;261073502;261073502;-76
2021/10/19 05:15:32;;;;;;;;;99.50;99.50;;;;;;;;2;288086706;288086706;-76
2021/10/19 05:23:48;;;;;;;;;80.50;77.00;;;;;;;;2;261078838;261078838;-76
2021/10/19 05:33:15;;;;;;;;;87.50;87.50;;;;;;;;2;288087029;288087029;-78
2021/10/19 05:41:31;;;;;;;;;88.00;86.50;;;;;;;;2;261078149;261078149;-78
2021/10/19 05:50:58;;;;;;;;;93.50;93.50;;;;;;;;2;288086346;288086346;-79
2021/10/19 05:59:14;;;;;;;;;88.50;88.00;;;;;;;;2;261077336;261077336;-79
2021/10/19 06:08:41;;;;;;;;;96.50;89.50;;;;;;;;2;288083404;288083404;-86
2021/10/19 06:16:57;;;;;;;;;84.50;82.50;;;;;;;;2;261074601;261074601;-79
2021/10/19 06:26:24;;;;;;;;;96.50;96.50;;;;;;;;2;288082310;288082310;-78
2021/10/19 06:34:40;;;;;;;;;86.50;83.50;;;;;;;;2;261075885;261075885;-79
2021/10/19 06:44:07;;;;;;;;;83.00;81.00;;;;;;;;2;288084962;288084962;-79
2021/10/19 06:52:23;;;;;;;;;85.00;84.00;;;;;;;;2;261076965;261076965;-79
2021/10/19 07:01:50;;;;;;;;;90.50;90.50;;;;;;;;2;288082493;288082493;-78
2021/10/19 07:10:06;;;;;;;;;87.00;86.00;;;;;;;;2;261077257;261077257;-78
2021/10/19 07:19:36;;;;;;;;;84.00;80.50;;;;;;;;2;288084605;288084605;-78
2021/10/19 07:27:52;;;;;;;;;95.50;90.00;;;;;;;;2;261074035;261074035;-78
2021/10/19 07:37:19;;;;;;;;;100.00;100.00;;;;;;;;2;288081144;288081144;-78
2021/10/19 07:45:35;;;;;;;;;83.50;79.50;;;;;;;;2;261075227;261075227;-78
2021/10/19 07:55:03;;;;;;;;;107.50;107.50;;;;;;;;2;288084471;288084471;-78
2021/10/19 08:03:19;;;;;;;;;95.00;90.50;;;;;;;;2;261077182;261077182;-79
2021/10/19 08:12:46;;;;;;;;;88.50;81.00;;;;;;;;2;288083697;288083697;-78
2021/10/19 08:21:02;;;;;;;;;85.00;82.00;;;;;;;;2;261075902;261075902;-78
2021/10/19 08:33:50;;;;;;;;;92.00;91.50;;;;;;;;2;288085112;288085112;-83
2021/10/19 08:42:06;;;;;;;;;63.00;53.50;;;;;;;;2;261077372;261077372;-85
2021/10/19 08:51:35;;;;;;;;;65.50;56.00;;;;;;;;2;288085016;288085016;-86
2021/10/19 08:59:51;;;;;;;;;73.50;68.00;;;;;;;;2;261077423;261077423;-78
2021/10/19 09:09:25;;;;;;;;;;;;;;;;;;2;288085694;288085694;-74
2021/10/19 09:17:41;;;;;;;;;73.50;68.00;;;;;;;;2;261075854;261075854;-75
2021/10/19 09:27:13;;;;;;;;;63.00;54.00;;;;;;;;2;288084352;288084352;-75
2021/10/19 09:35:30;;;;;;;;;78.00;75.00;;;;;;;;2;261078830;261078830;-75
2021/10/19 09:44:59;;;;;;;;;71.50;65.00;;;;;;;;2;288083478;288083478;-78
2021/10/19 09:53:15;;;;;;;;;71.50;65.00;;;;;;;;2;261077178;261077178;-79
2021/10/19 10:02:46;;;;;;;;;73.50;67.00;;;;;;;;2;288085958;288085958;-79
2021/10/19 10:11:01;;;;;;;;;61.00;54.00;;;;;;;;2;261075029;261075029;-80
2021/10/19 10:20:37;;;;;;;;;70.50;63.00;;;;;;;;2;288081318;288081318;-79
2021/10/19 10:28:52;;;;;;;;;82.00;78.00;;;;;;;;2;261075998;261075998;-79
2021/10/19 10:38:20;;;;;;;;;59.00;50.50;;;;;;;;2;288085638;288085638;-80
2021/10/19 10:46:36;;;;;;;;;68.00;59.00;;;;;;;;2;261074673;261074673;-79
2021/10/19 10:56:04;;;;;;;;;74.50;70.00;;;;;;;;2;288085254;288085254;-83
2021/10/19 11:04:20;;;;;;;;;65.50;56.00;;;;;;;;2;261079560;261079560;-82
2021/10/19 11:13:47;;;;;;;;;64.50;56.00;;;;;;;;2;288083210;288083210;-82
2021/10/19 11:22:05;;;;;;;;;67.50;59.50;;;;;;;;2;261076920;261076920;-80
2021/10/19 11:31:33;;;;;;;;;39.50;36.00;;;;;;;;2;288082780;288082780;-79
2021/10/19 11:39:49;;;;;;;;;48.50;42.00;;;;;;;;2;261076219;261076219;-79
2021/10/19 11:49:18;;;;;;;;;67.00;55.50;;;;;;;;2;288089111;288089111;-80
2021/10/19 11:57:38;;;;;;;;;65.00;55.50;;;;;;;;2;261076613;261076613;-85
2021/10/19 12:07:05;;;;;;;;;58.50;49.00;;;;;;;;2;288085441;288085441;-83
2021/10/19 12:15:22;;;;;;;;;59.50;49.50;;;;;;;;2;261076770;261076770;-85
2021/10/19 12:24:51;;;;;;;;;93.00;93.00;;;;;;;;2;288085928;288085928;-83
2021/10/19 12:33:19;;;;;;;;;73.50;68.00;;;;;;;;2;261078306;261078306;-84
2021/10/19 12:42:47;;;;;;;;;75.50;71.00;;;;;;;;2;288086113;288086113;-84
2021/10/19 12:51:04;;;;;;;;;73.00;64.00;;;;;;;;2;261077575;261077575;-82
2021/10/19 13:00:32;;;;;;;;;73.00;67.50;;;;;;;;2;288085098;288085098;-82
2021/10/19 13:08:49;;;;;;;;;84.00;83.00;;;;;;;;2;261074463;261074463;-84
2021/10/19 13:18:16;;;;;;;;;99.50;99.50;;;;;;;;2;288085409;288085409;-85
2021/10/19 13:26:32;;;;;;;;;71.50;64.00;;;;;;;;2;261075168;261075168;-83
2021/10/19 13:36:02;;;;;;;;;68.50;61.50;;;;;;;;2;288083237;288083237;-83
2021/10/19 13:44:17;;;;;;;;;68.50;58.50;;;;;;;;2;261076656;261076656;-82
2021/10/19 13:53:45;;;;;;;;;61.50;52.00;;;;;;;;2;288084747;288084747;-80
2021/10/19 14:02:01;;;;;;;;;70.50;62.00;;;;;;;;2;261076490;261076490;-80
2021/10/19 14:11:30;;;;;;;;;65.50;56.50;;;;;;;;2;288085950;288085950;-76
2021/10/19 14:19:49;;;;;;;;;58.00;49.00;;;;;;;;2;261078680;261078680;-76
2021/10/19 14:29:16;;;;;;;;;56.00;47.00;;;;;;;;2;288083040;288083040;-76
2021/10/19 14:37:32;;;;;;;;;56.50;47.50;;;;;;;;2;261076228;261076228;-76
2021/10/19 14:47:00;;;;;;;;;51.50;43.50;;;;;;;;2;288083641;288083641;-76
2021/10/19 14:55:16;;;;;;;;;46.00;40.00;;;;;;;;2;261078831;261078831;-76
2021/10/19 15:04:44;;;;;;;;;51.50;44.00;;;;;;;;2;288085295;288085295;-75
2021/10/19 15:12:59;;;;;;;;;62.00;52.00;;;;;;;;2;261074714;261074714;-76
2021/10/19 15:22:27;;;;;;;;;60.00;52.50;;;;;;;;2;288082904;288082904;-75
2021/10/19 15:30:42;;;;;;;;;69.00;61.00;;;;;;;;2;261077111;261077111;-75
2021/10/19 15:40:10;;;;;;;;;50.00;42.50;;;;;;;;2;288086725;288086725;-82
2021/10/19 15:48:26;;;;;;;;;53.00;45.00;;;;;;;;2;261080472;261080472;-80
2021/10/19 15:57:53;;;;;;;;;48.00;41.50;;;;;;;;2;288086186;288086186;-88
2021/10/19 16:06:09;;;;;;;;;71.50;64.00;;;;;;;;2;261077143;261077143;-85
2021/10/19 16:15:38;;;;;;;;;74.00;69.00;;;;;;;;2;288089503;288089503;-80
2021/10/19 16:23:53;;;;;;;;;53.00;45.50;;;;;;;;2;261079855;261079855;-80
2021/10/19 16:33:20;;;;;;;;;77.00;74.00;;;;;;;;2;288085248;288085248;-78
2021/10/19 16:41:36;;;;;;;;;70.00;62.00;;;;;;;;2;261080301;261080301;-85
2021/10/19 16:51:04;;;;;;;;;66.50;55.50;;;;;;;;2;288084526;288084526;-83
2021/10/19 16:59:19;;;;;;;;;71.00;57.50;;;;;;;;2;261074379;261074379;-83
2021/10/19 17:08:47;;;;;;;;;54.50;44.00;;;;;;;;2;288083061;288083061;-82
2021/10/19 17:17:03;;;;;;;;;56.00;49.00;;;;;;;;2;261075776;261075776;-84
2021/10/19 17:26:31;;;;;;;;;75.00;70.00;;;;;;;;2;288085010;288085010;-81
2021/10/19 17:34:46;;;;;;;;;68.00;60.00;;;;;;;;2;261079100;261079100;-80
2021/10/19 17:44:14;;;;;;;;;63.00;54.00;;;;;;;;2;288085884;288085884;-79
2021/10/19 17:52:29;;;;;;;;;58.00;48.50;;;;;;;;2;261078161;261078161;-79
2021/10/19 18:01:57;;;;;;;;;43.50;33.00;;;;;;;;2;288085463;288085463;-79
2021/10/19 18:10:12;;;;;;;;;64.00;54.50;;;;;;;;2;261079238;261079238;-79
2021/10/19 18:19:41;;;;;;;;;60.50;51.50;;;;;;;;2;288085313;288085313;-77
2021/10/19 18:27:56;;;;;;;;;57.50;48.50;;;;;;;;2;261079474;261079474;-78
2021/10/19 18:37:25;;;;;;;;;70.50;57.50;;;;;;;;2;288088978;288088978;-77
2021/10/19 18:45:40;;;;;;;;;69.50;56.00;;;;;;;;2;261079719;261079719;-77
2021/10/19 18:55:08;;;;;;;;;58.50;49.00;;;;;;;;2;288089388;288089388;-77
2021/10/19 19:03:25;;;;;;;;;67.50;59.00;;;;;;;;2;261075839;261075839;-77
2021/10/19 19:12:53;;;;;;;;;60.00;51.00;;;;;;;;2;288086153;288086153;-77
2021/10/19 19:21:09;;;;;;;;;57.00;48.00;;;;;;;;2;261075049;261075049;-77
2021/10/19 19:30:40;;;;;;;;;58.50;47.50;;;;;;;;2;288086120;288086120;-77
2021/10/19 19:38:56;;;;;;;;;79.50;78.00;;;;;;;;2;261081263;261081263;-79
2021/10/19 19:48:24;;;;;;;;;61.50;51.00;;;;;;;;2;288085892;288085892;-77
2021/10/19 19:56:39;;;;;;;;;59.50;49.50;;;;;;;;2;261079142;261079142;-79
2021/10/19 20:06:07;;;;;;;;;67.50;57.00;;;;;;;;2;288085689;288085689;-80
2021/10/19 20:14:25;;;;;;;;;62.00;51.50;;;;;;;;2;261076958;261076958;-82
2021/10/19 20:23:52;;;;;;;;;49.50;42.00;;;;;;;;2;288083764;288083764;-80
2021/10/19 20:32:08;;;;;;;;;64.00;56.00;;;;;;;;2;261079922;261079922;-81
2021/10/19 20:41:36;;;;;;;;;74.50;69.50;;;;;;;;2;288088642;288088642;-80
2021/10/19 20:49:52;;;;;;;;;60.50;51.50;;;;;;;;2;261079357;261079357;-80
2021/10/19 20:59:20;;;;;;;;;55.50;46.50;;;;;;;;2;288085889;288085889;-80
2021/10/19 21:07:38;;;;;;;;;63.00;54.00;;;;;;;;2;261074955;261074955;-80
2021/10/19 21:17:06;;;;;;;;;57.00;49.00;;;;;;;;2;288085892;288085892;-79
2021/10/19 21:25:24;;;;;;;;;53.50;45.50;;;;;;;;2;261076481;261076481;-79
2021/10/19 21:34:52;;;;;;;;;61.00;51.50;;;;;;;;2;288084796;288084796;-79
2021/10/19 21:43:08;;;;;;;;;57.50;48.00;;;;;;;;2;261079493;261079493;-79
2021/10/19 21:52:36;;;;;;;;;59.50;50.00;;;;;;;;2;288084552;288084552;-79
2021/10/19 22:00:52;;;;;;;;;58.50;49.00;;;;;;;;2;261077209;261077209;-79
2021/10/19 22:10:20;;;;;;;;;66.00;56.00;;;;;;;;2;288084528;288084528;-80
2021/10/19 22:18:36;;;;;;;;;56.00;47.50;;;;;;;;2;261079766;261079766;-80
2021/10/19 22:28:04;;;;;;;;;55.00;46.50;;;;;;;;2;288085774;288085774;-79
2021/10/19 22:36:20;;;;;;;;;58.50;49.00;;;;;;;;2;261076361;261076361;-81
2021/10/19 22:45:48;;;;;;;;;48.00;41.50;;;;;;;;2;288084835;288084835;-79
2021/10/19 22:54:04;;;;;;;;;62.50;52.00;;;;;;;;2;261078702;261078702;-79
2021/10/19 23:03:32;;;;;;;;;64.50;54.50;;;;;;;;2;288083826;288083826;-79
2021/10/19 23:11:47;;;;;;;;;64.50;54.50;;;;;;;;2;261077316;261077316;-78
2021/10/19 23:21:15;;;;;;;;;57.00;47.50;;;;;;;;2;288085406;288085406;-78
2021/10/19 23:29:30;;;;;;;;;55.50;47.00;;;;;;;;2;261077220;261077220;-79
2021/10/19 23:38:58;;;;;;;;;48.50;42.00;;;;;;;;2;288086241;288086241;-78
2021/10/19 23:47:13;;;;;;;;;54.50;45.50;;;;;;;;2;261077550;261077550;-78
2021/10/19 23:56:44;;;;;;;;;65.50;55.00;;;;;;;;2;288084749;288084749;-78
